sensor_id;sensor_type;location;lat;lon;timestamp;pressure;altitude;pressure_sealevel;temperature;humidity
10720;BME280;5411;58.386;15.560;2023-09-30T00:01:59;99833.38;;;14.64;100.00
10720;BME280;5411;58.386;15.560;2023-09-30T00:04:27;99841.16;;;14.66;100.00
10720;BME280;5411;58.386;15.560;2023-09-30T00:06:57;99829.59;;;14.65;100.00
10720;BME280;5411;58.386;15.560;2023-09-30T00:09:25;99832.63;;;14.69;100.00
10720;BME280;5411;58.386;15.560;2023-09-30T00:11:53;99846.06;;;14.69;100.00
10720;BME280;5411;58.386;15.560;2023-09-30T00:14:24;99843.97;;;14.71;100.00
10720;BME280;5411;58.386;15.560;2023-09-30T00:16:54;99843.16;;;14.70;100.00
10720;BME280;5411;58.386;15.560;2023-09-30T00:19:23;99851.22;;;14.70;100.00
10720;BME280;5411;58.386;15.560;2023-09-30T00:21:52;99846.56;;;14.66;100.00
10720;BME280;5411;58.386;15.560;2023-09-30T00:24:20;99850.56;;;14.63;100.00
10720;BME280;5411;58.386;15.560;2023-09-30T00:26:49;99850.72;;;14.56;100.00
10720;BME280;5411;58.386;15.560;2023-09-30T00:29:17;99844.44;;;14.51;100.00
10720;BME280;5411;58.386;15.560;2023-09-30T00:31:48;99846.19;;;14.45;100.00
10720;BME280;5411;58.386;15.560;2023-09-30T00:34:16;99858.38;;;14.36;100.00
10720;BME280;5411;58.386;15.560;2023-09-30T00:36:45;99849.84;;;14.27;100.00
10720;BME280;5411;58.386;15.560;2023-09-30T00:39:14;99851.66;;;14.22;100.00
10720;BME280;5411;58.386;15.560;2023-09-30T00:41:44;99851.78;;;14.15;100.00
10720;BME280;5411;58.386;15.560;2023-09-30T00:44:12;99862.69;;;14.09;100.00
10720;BME280;5411;58.386;15.560;2023-09-30T00:46:44;99850.41;;;14.01;100.00
10720;BME280;5411;58.386;15.560;2023-09-30T00:49:14;99851.38;;;13.95;100.00
10720;BME280;5411;58.386;15.560;2023-09-30T00:51:47;99857.91;;;13.87;100.00
10720;BME280;5411;58.386;15.560;2023-09-30T00:54:17;99853.50;;;13.81;100.00
10720;BME280;5411;58.386;15.560;2023-09-30T00:56:46;99859.56;;;13.77;100.00
10720;BME280;5411;58.386;15.560;2023-09-30T00:59:16;99845.69;;;13.68;100.00
10720;BME280;5411;58.386;15.560;2023-09-30T01:01:46;99854.56;;;13.69;100.00
10720;BME280;5411;58.386;15.560;2023-09-30T01:04:16;99851.75;;;13.64;100.00
10720;BME280;5411;58.386;15.560;2023-09-30T01:06:48;99859.47;;;13.60;100.00
10720;BME280;5411;58.386;15.560;2023-09-30T01:09:16;99851.31;;;13.55;100.00
10720;BME280;5411;58.386;15.560;2023-09-30T01:11:47;99853.41;;;13.53;100.00
10720;BME280;5411;58.386;15.560;2023-09-30T01:14:26;99851.63;;;13.47;100.00
10720;BME280;5411;58.386;15.560;2023-09-30T01:16:55;99851.31;;;13.43;100.00
10720;BME280;5411;58.386;15.560;2023-09-30T01:19:26;99849.91;;;13.41;100.00
10720;BME280;5411;58.386;15.560;2023-09-30T01:21:59;99850.59;;;13.36;100.00
10720;BME280;5411;58.386;15.560;2023-09-30T01:24:38;99853.50;;;13.35;100.00
10720;BME280;5411;58.386;15.560;2023-09-30T01:27:09;99849.31;;;13.27;100.00
10720;BME280;5411;58.386;15.560;2023-09-30T01:29:40;99854.47;;;13.29;100.00
10720;BME280;5411;58.386;15.560;2023-09-30T01:32:16;99857.38;;;13.27;100.00
10720;BME280;5411;58.386;15.560;2023-09-30T01:34:45;99862.97;;;13.26;100.00
10720;BME280;5411;58.386;15.560;2023-09-30T01:37:17;99858.88;;;13.23;100.00
10720;BME280;5411;58.386;15.560;2023-09-30T01:39:45;99852.91;;;13.21;100.00
10720;BME280;5411;58.386;15.560;2023-09-30T01:42:17;99849.19;;;13.22;100.00
10720;BME280;5411;58.386;15.560;2023-09-30T01:44:51;99850.22;;;13.21;100.00
10720;BME280;5411;58.386;15.560;2023-09-30T01:47:20;99860.06;;;13.27;100.00
10720;BME280;5411;58.386;15.560;2023-09-30T01:49:51;99857.16;;;13.29;100.00
10720;BME280;5411;58.386;15.560;2023-09-30T01:52:21;99852.09;;;13.32;100.00
10720;BME280;5411;58.386;15.560;2023-09-30T01:54:49;99853.66;;;13.40;100.00
10720;BME280;5411;58.386;15.560;2023-09-30T01:57:19;99851.53;;;13.42;100.00
10720;BME280;5411;58.386;15.560;2023-09-30T01:59:49;99851.06;;;13.45;100.00
10720;BME280;5411;58.386;15.560;2023-09-30T02:02:18;99858.19;;;13.51;100.00
10720;BME280;5411;58.386;15.560;2023-09-30T02:04:47;99859.97;;;13.57;100.00
10720;BME280;5411;58.386;15.560;2023-09-30T02:07:16;99862.75;;;13.62;100.00
10720;BME280;5411;58.386;15.560;2023-09-30T02:09:51;99859.34;;;13.67;100.00
10720;BME280;5411;58.386;15.560;2023-09-30T02:12:22;99855.97;;;13.71;100.00
10720;BME280;5411;58.386;15.560;2023-09-30T02:18:04;99867.28;;;13.85;100.00
10720;BME280;5411;58.386;15.560;2023-09-30T02:20:34;99867.84;;;13.87;100.00
10720;BME280;5411;58.386;15.560;2023-09-30T02:23:07;99864.81;;;13.95;100.00
10720;BME280;5411;58.386;15.560;2023-09-30T02:25:39;99869.97;;;13.97;100.00
10720;BME280;5411;58.386;15.560;2023-09-30T02:28:07;99872.50;;;14.03;100.00
10720;BME280;5411;58.386;15.560;2023-09-30T02:30:36;99873.56;;;14.02;100.00
10720;BME280;5411;58.386;15.560;2023-09-30T02:33:05;99889.69;;;14.02;100.00
10720;BME280;5411;58.386;15.560;2023-09-30T02:35:34;99873.91;;;14.06;100.00
10720;BME280;5411;58.386;15.560;2023-09-30T02:38:02;99867.72;;;14.05;100.00
10720;BME280;5411;58.386;15.560;2023-09-30T02:40:32;99869.34;;;14.06;100.00
10720;BME280;5411;58.386;15.560;2023-09-30T02:43:02;99865.03;;;14.05;100.00
10720;BME280;5411;58.386;15.560;2023-09-30T02:45:31;99869.81;;;14.03;100.00
10720;BME280;5411;58.386;15.560;2023-09-30T02:48:00;99863.25;;;13.99;100.00
10720;BME280;5411;58.386;15.560;2023-09-30T02:50:33;99853.47;;;13.93;100.00
10720;BME280;5411;58.386;15.560;2023-09-30T02:53:01;99853.81;;;13.85;100.00
10720;BME280;5411;58.386;15.560;2023-09-30T02:55:31;99851.28;;;13.78;100.00
10720;BME280;5411;58.386;15.560;2023-09-30T02:57:59;99852.47;;;13.71;100.00
10720;BME280;5411;58.386;15.560;2023-09-30T03:00:29;99861.47;;;13.65;100.00
10720;BME280;5411;58.386;15.560;2023-09-30T03:03:01;99861.91;;;13.62;100.00
10720;BME280;5411;58.386;15.560;2023-09-30T03:05:30;99861.00;;;13.56;100.00
10720;BME280;5411;58.386;15.560;2023-09-30T03:08:00;99856.09;;;13.53;100.00
10720;BME280;5411;58.386;15.560;2023-09-30T03:10:30;99856.56;;;13.50;100.00
10720;BME280;5411;58.386;15.560;2023-09-30T03:12:59;99863.81;;;13.49;100.00
10720;BME280;5411;58.386;15.560;2023-09-30T03:15:30;99850.72;;;13.41;100.00
10720;BME280;5411;58.386;15.560;2023-09-30T03:18:02;99854.94;;;13.37;100.00
10720;BME280;5411;58.386;15.560;2023-09-30T03:20:31;99857.84;;;13.36;100.00
10720;BME280;5411;58.386;15.560;2023-09-30T03:22:59;99856.19;;;13.35;100.00
10720;BME280;5411;58.386;15.560;2023-09-30T03:25:31;99855.88;;;13.31;100.00
10720;BME280;5411;58.386;15.560;2023-09-30T03:28:00;99858.56;;;13.31;100.00
10720;BME280;5411;58.386;15.560;2023-09-30T03:30:30;99870.91;;;13.32;100.00
10720;BME280;5411;58.386;15.560;2023-09-30T03:33:06;99859.59;;;13.30;100.00
10720;BME280;5411;58.386;15.560;2023-09-30T03:35:35;99860.66;;;13.29;100.00
10720;BME280;5411;58.386;15.560;2023-09-30T03:38:07;99863.34;;;13.29;100.00
10720;BME280;5411;58.386;15.560;2023-09-30T03:40:39;99861.13;;;13.26;100.00
10720;BME280;5411;58.386;15.560;2023-09-30T03:43:16;99862.38;;;13.24;100.00
10720;BME280;5411;58.386;15.560;2023-09-30T03:45:46;99868.34;;;13.26;100.00
10720;BME280;5411;58.386;15.560;2023-09-30T03:48:14;99869.19;;;13.26;100.00
10720;BME280;5411;58.386;15.560;2023-09-30T03:50:43;99858.44;;;13.26;100.00
10720;BME280;5411;58.386;15.560;2023-09-30T03:53:12;99875.59;;;13.25;100.00
10720;BME280;5411;58.386;15.560;2023-09-30T03:55:40;99872.91;;;13.25;100.00
10720;BME280;5411;58.386;15.560;2023-09-30T03:58:09;99860.06;;;13.27;100.00
10720;BME280;5411;58.386;15.560;2023-09-30T04:00:37;99862.97;;;13.26;100.00
10720;BME280;5411;58.386;15.560;2023-09-30T04:03:08;99861.94;;;13.27;100.00
10720;BME280;5411;58.386;15.560;2023-09-30T04:05:37;99861.34;;;13.25;100.00
10720;BME280;5411;58.386;15.560;2023-09-30T04:08:06;99878.28;;;13.25;100.00
10720;BME280;5411;58.386;15.560;2023-09-30T04:10:35;99875.00;;;13.23;100.00
10720;BME280;5411;58.386;15.560;2023-09-30T04:13:05;99871.28;;;13.24;100.00
10720;BME280;5411;58.386;15.560;2023-09-30T04:15:36;99871.50;;;13.23;100.00
10720;BME280;5411;58.386;15.560;2023-09-30T04:18:05;99879.56;;;13.23;100.00
10720;BME280;5411;58.386;15.560;2023-09-30T04:20:35;99880.75;;;13.27;100.00
10720;BME280;5411;58.386;15.560;2023-09-30T04:23:07;99879.56;;;13.23;100.00
10720;BME280;5411;58.386;15.560;2023-09-30T04:25:37;99882.00;;;13.24;100.00
10720;BME280;5411;58.386;15.560;2023-09-30T04:28:07;99886.34;;;13.25;100.00
10720;BME280;5411;58.386;15.560;2023-09-30T04:30:36;99885.53;;;13.25;100.00
10720;BME280;5411;58.386;15.560;2023-09-30T04:33:05;99887.63;;;13.23;100.00
10720;BME280;5411;58.386;15.560;2023-09-30T04:35:36;99884.25;;;13.27;100.00
10720;BME280;5411;58.386;15.560;2023-09-30T04:38:05;99897.44;;;13.29;100.00
10720;BME280;5411;58.386;15.560;2023-09-30T04:40:36;99882.75;;;13.31;100.00
10720;BME280;5411;58.386;15.560;2023-09-30T04:43:05;99881.66;;;13.32;100.00
10720;BME280;5411;58.386;15.560;2023-09-30T04:45:36;99897.56;;;13.34;100.00
10720;BME280;5411;58.386;15.560;2023-09-30T04:48:05;99890.53;;;13.33;100.00
10720;BME280;5411;58.386;15.560;2023-09-30T04:50:33;99897.78;;;13.32;100.00
10720;BME280;5411;58.386;15.560;2023-09-30T04:53:06;99873.16;;;13.35;100.00
10720;BME280;5411;58.386;15.560;2023-09-30T04:55:36;99889.50;;;13.34;100.00
10720;BME280;5411;58.386;15.560;2023-09-30T04:58:04;99893.59;;;13.36;100.00
10720;BME280;5411;58.386;15.560;2023-09-30T05:00:33;99887.41;;;13.36;100.00
10720;BME280;5411;58.386;15.560;2023-09-30T05:03:02;99891.25;;;13.40;100.00
10720;BME280;5411;58.386;15.560;2023-09-30T05:05:35;99882.16;;;13.41;100.00
10720;BME280;5411;58.386;15.560;2023-09-30T05:08:10;99881.09;;;13.42;100.00
10720;BME280;5411;58.386;15.560;2023-09-30T05:10:40;99891.38;;;13.45;100.00
10720;BME280;5411;58.386;15.560;2023-09-30T05:13:09;99882.50;;;13.44;100.00
10720;BME280;5411;58.386;15.560;2023-09-30T05:15:37;99879.25;;;13.42;100.00
10720;BME280;5411;58.386;15.560;2023-09-30T05:18:06;99884.13;;;13.45;100.00
10720;BME280;5411;58.386;15.560;2023-09-30T05:20:35;99887.75;;;13.51;100.00
10720;BME280;5411;58.386;15.560;2023-09-30T05:23:06;99883.44;;;13.50;100.00
10720;BME280;5411;58.386;15.560;2023-09-30T05:25:36;99883.56;;;13.55;100.00
10720;BME280;5411;58.386;15.560;2023-09-30T05:28:06;99881.19;;;13.59;100.00
10720;BME280;5411;58.386;15.560;2023-09-30T05:30:34;99886.69;;;13.64;100.00
10720;BME280;5411;58.386;15.560;2023-09-30T05:33:05;99875.25;;;13.68;100.00
10720;BME280;5411;58.386;15.560;2023-09-30T05:35:35;99864.81;;;13.72;100.00
10720;BME280;5411;58.386;15.560;2023-09-30T05:38:06;99883.19;;;13.75;100.00
10720;BME280;5411;58.386;15.560;2023-09-30T05:40:39;99876.75;;;13.76;100.00
10720;BME280;5411;58.386;15.560;2023-09-30T05:43:11;99873.84;;;13.77;100.00
10720;BME280;5411;58.386;15.560;2023-09-30T05:45:41;99871.16;;;13.77;100.00
10720;BME280;5411;58.386;15.560;2023-09-30T05:48:16;99876.88;;;13.81;100.00
10720;BME280;5411;58.386;15.560;2023-09-30T05:50:49;99864.25;;;13.81;100.00
10720;BME280;5411;58.386;15.560;2023-09-30T05:53:18;99869.63;;;13.81;100.00
10720;BME280;5411;58.386;15.560;2023-09-30T05:55:51;99878.03;;;13.85;100.00
10720;BME280;5411;58.386;15.560;2023-09-30T05:58:20;99867.84;;;13.87;100.00
10720;BME280;5411;58.386;15.560;2023-09-30T06:00:50;99879.78;;;13.91;100.00
10720;BME280;5411;58.386;15.560;2023-09-30T06:03:22;99871.00;;;13.96;100.00
10720;BME280;5411;58.386;15.560;2023-09-30T06:05:51;99874.75;;;13.95;100.00
10720;BME280;5411;58.386;15.560;2023-09-30T06:08:20;99864.09;;;14.00;100.00
10720;BME280;5411;58.386;15.560;2023-09-30T06:10:48;99878.94;;;14.02;100.00
10720;BME280;5411;58.386;15.560;2023-09-30T06:13:18;99877.19;;;14.08;100.00
10720;BME280;5411;58.386;15.560;2023-09-30T06:15:48;99887.22;;;14.12;100.00
10720;BME280;5411;58.386;15.560;2023-09-30T06:18:17;99875.16;;;14.15;100.00
10720;BME280;5411;58.386;15.560;2023-09-30T06:20:47;99880.06;;;14.18;100.00
10720;BME280;5411;58.386;15.560;2023-09-30T06:23:16;99885.56;;;14.23;100.00
10720;BME280;5411;58.386;15.560;2023-09-30T06:25:46;99882.16;;;14.27;100.00
10720;BME280;5411;58.386;15.560;2023-09-30T06:28:15;99872.19;;;14.28;100.00
10720;BME280;5411;58.386;15.560;2023-09-30T06:30:49;99869.38;;;14.35;100.00
10720;BME280;5411;58.386;15.560;2023-09-30T06:33:22;99889.63;;;14.37;100.00
10720;BME280;5411;58.386;15.560;2023-09-30T06:35:56;99889.97;;;14.41;100.00
10720;BME280;5411;58.386;15.560;2023-09-30T06:38:29;99880.13;;;14.46;100.00
10720;BME280;5411;58.386;15.560;2023-09-30T06:40:58;99886.69;;;14.50;100.00
10720;BME280;5411;58.386;15.560;2023-09-30T06:43:26;99884.88;;;14.56;100.00
10720;BME280;5411;58.386;15.560;2023-09-30T06:45:57;99892.03;;;14.62;100.00
10720;BME280;5411;58.386;15.560;2023-09-30T06:48:31;99894.31;;;14.70;100.00
10720;BME280;5411;58.386;15.560;2023-09-30T06:51:00;99897.13;;;14.75;100.00
10720;BME280;5411;58.386;15.560;2023-09-30T06:53:34;99890.97;;;14.80;100.00
10720;BME280;5411;58.386;15.560;2023-09-30T06:56:05;99886.28;;;14.87;100.00
10720;BME280;5411;58.386;15.560;2023-09-30T06:58:39;99877.44;;;14.91;100.00
10720;BME280;5411;58.386;15.560;2023-09-30T07:01:15;99887.25;;;14.97;100.00
10720;BME280;5411;58.386;15.560;2023-09-30T07:03:44;99876.59;;;15.03;100.00
10720;BME280;5411;58.386;15.560;2023-09-30T07:06:21;99878.06;;;15.10;100.00
10720;BME280;5411;58.386;15.560;2023-09-30T07:08:50;99873.22;;;15.12;100.00
10720;BME280;5411;58.386;15.560;2023-09-30T07:11:27;99873.56;;;15.16;100.00
10720;BME280;5411;58.386;15.560;2023-09-30T07:13:56;99876.09;;;15.22;100.00
10720;BME280;5411;58.386;15.560;2023-09-30T07:16:30;99879.47;;;15.29;100.00
10720;BME280;5411;58.386;15.560;2023-09-30T07:19:07;99876.56;;;15.36;100.00
10720;BME280;5411;58.386;15.560;2023-09-30T07:21:36;99872.09;;;15.42;100.00
10720;BME280;5411;58.386;15.560;2023-09-30T07:24:07;99872.47;;;15.50;100.00
10720;BME280;5411;58.386;15.560;2023-09-30T07:26:36;99871.53;;;15.56;100.00
10720;BME280;5411;58.386;15.560;2023-09-30T07:29:04;99881.91;;;15.64;100.00
10720;BME280;5411;58.386;15.560;2023-09-30T07:31:35;99869.94;;;15.77;100.00
10720;BME280;5411;58.386;15.560;2023-09-30T07:34:04;99879.47;;;15.85;100.00
10720;BME280;5411;58.386;15.560;2023-09-30T07:36:33;99883.63;;;15.92;100.00
10720;BME280;5411;58.386;15.560;2023-09-30T07:39:02;99888.47;;;15.90;100.00
10720;BME280;5411;58.386;15.560;2023-09-30T07:41:34;99895.00;;;15.94;100.00
10720;BME280;5411;58.386;15.560;2023-09-30T07:44:05;99886.66;;;15.96;100.00
10720;BME280;5411;58.386;15.560;2023-09-30T07:46:37;99896.28;;;16.09;100.00
10720;BME280;5411;58.386;15.560;2023-09-30T07:49:08;99889.00;;;16.09;100.00
10720;BME280;5411;58.386;15.560;2023-09-30T07:51:37;99883.59;;;16.09;100.00
10720;BME280;5411;58.386;15.560;2023-09-30T07:54:06;99894.84;;;16.23;100.00
10720;BME280;5411;58.386;15.560;2023-09-30T07:56:54;99895.13;;;16.26;100.00
10720;BME280;5411;58.386;15.560;2023-09-30T07:59:26;99898.38;;;16.28;100.00
10720;BME280;5411;58.386;15.560;2023-09-30T08:01:56;99894.31;;;16.26;100.00
10720;BME280;5411;58.386;15.560;2023-09-30T08:04:25;99886.78;;;16.28;100.00
10720;BME280;5411;58.386;15.560;2023-09-30T08:06:54;99879.31;;;16.35;98.72
10720;BME280;5411;58.386;15.560;2023-09-30T08:09:23;99887.69;;;16.38;96.92
10720;BME280;5411;58.386;15.560;2023-09-30T08:11:53;99875.34;;;16.43;96.35
10720;BME280;5411;58.386;15.560;2023-09-30T08:14:24;99890.16;;;16.40;94.72
10720;BME280;5411;58.386;15.560;2023-09-30T08:16:55;99887.78;;;16.44;95.38
10720;BME280;5411;58.386;15.560;2023-09-30T08:19:24;99887.78;;;16.44;94.53
10720;BME280;5411;58.386;15.560;2023-09-30T08:21:53;99895.16;;;16.53;93.40
10720;BME280;5411;58.386;15.560;2023-09-30T08:24:21;99898.50;;;16.60;95.43
10720;BME280;5411;58.386;15.560;2023-09-30T08:26:49;99904.59;;;16.72;93.05
10720;BME280;5411;58.386;15.560;2023-09-30T08:29:20;99912.22;;;16.76;94.13
10720;BME280;5411;58.386;15.560;2023-09-30T08:31:57;99908.97;;;16.79;89.45
10720;BME280;5411;58.386;15.560;2023-09-30T08:34:25;99918.22;;;16.83;88.72
10720;BME280;5411;58.386;15.560;2023-09-30T08:36:54;99912.91;;;16.93;89.18
10720;BME280;5411;58.386;15.560;2023-09-30T08:39:22;99936.53;;;17.02;88.98
10720;BME280;5411;58.386;15.560;2023-09-30T08:41:52;99930.34;;;17.07;88.41
10720;BME280;5411;58.386;15.560;2023-09-30T08:44:23;99934.25;;;17.16;87.44
10720;BME280;5411;58.386;15.560;2023-09-30T08:46:52;99927.94;;;17.10;86.65
10720;BME280;5411;58.386;15.560;2023-09-30T08:49:22;99926.00;;;17.06;87.40
10720;BME280;5411;58.386;15.560;2023-09-30T08:51:55;99922.66;;;16.94;86.35
10720;BME280;5411;58.386;15.560;2023-09-30T08:54:27;99928.28;;;16.87;88.36
10720;BME280;5411;58.386;15.560;2023-09-30T08:56:55;99932.06;;;16.91;88.75
10720;BME280;5411;58.386;15.560;2023-09-30T08:59:25;99929.34;;;16.86;88.33
10720;BME280;5411;58.386;15.560;2023-09-30T09:01:55;99935.19;;;16.78;88.31
10720;BME280;5411;58.386;15.560;2023-09-30T09:04:26;99935.16;;;16.73;87.30
10720;BME280;5411;58.386;15.560;2023-09-30T09:06:55;99927.47;;;16.65;87.63
10720;BME280;5411;58.386;15.560;2023-09-30T09:09:23;99944.09;;;16.57;88.74
10720;BME280;5411;58.386;15.560;2023-09-30T09:11:52;99929.91;;;16.45;88.73
10720;BME280;5411;58.386;15.560;2023-09-30T09:14:36;99939.53;;;16.35;90.29
10720;BME280;5411;58.386;15.560;2023-09-30T09:17:10;99936.50;;;16.32;90.14
10720;BME280;5411;58.386;15.560;2023-09-30T09:19:59;99923.09;;;16.37;89.65
10720;BME280;5411;58.386;15.560;2023-09-30T09:22:38;99930.75;;;16.45;89.87
10720;BME280;5411;58.386;15.560;2023-09-30T09:25:11;99929.41;;;16.48;89.11
10720;BME280;5411;58.386;15.560;2023-09-30T09:27:41;99936.75;;;16.52;88.71
10720;BME280;5411;58.386;15.560;2023-09-30T09:30:23;99932.97;;;16.53;86.48
10720;BME280;5411;58.386;15.560;2023-09-30T09:33:00;99926.84;;;16.58;86.85
10720;BME280;5411;58.386;15.560;2023-09-30T09:35:34;99925.91;;;16.69;86.81
10720;BME280;5411;58.386;15.560;2023-09-30T09:38:04;99925.97;;;16.74;87.30
10720;BME280;5411;58.386;15.560;2023-09-30T09:40:36;99927.63;;;16.80;86.31
10720;BME280;5411;58.386;15.560;2023-09-30T09:43:07;99928.28;;;16.87;85.46
10720;BME280;5411;58.386;15.560;2023-09-30T09:45:42;99937.75;;;16.90;85.54
10720;BME280;5411;58.386;15.560;2023-09-30T09:48:14;99933.44;;;16.89;84.43
10720;BME280;5411;58.386;15.560;2023-09-30T09:50:44;99930.41;;;16.85;85.13
10720;BME280;5411;58.386;15.560;2023-09-30T09:53:16;99947.75;;;16.89;85.48
10720;BME280;5411;58.386;15.560;2023-09-30T09:55:49;99942.78;;;16.81;85.77
10720;BME280;5411;58.386;15.560;2023-09-30T09:58:19;99950.59;;;16.78;86.17
10720;BME280;5411;58.386;15.560;2023-09-30T10:00:50;99944.09;;;16.79;86.09
10720;BME280;5411;58.386;15.560;2023-09-30T10:03:20;99954.09;;;16.78;86.62
10720;BME280;5411;58.386;15.560;2023-09-30T10:05:50;99948.69;;;16.78;87.79
10720;BME280;5411;58.386;15.560;2023-09-30T10:08:37;99932.22;;;16.80;86.65
10720;BME280;5411;58.386;15.560;2023-09-30T10:11:08;99944.50;;;16.87;86.58
10720;BME280;5411;58.386;15.560;2023-09-30T10:13:51;99966.97;;;16.93;86.23
10720;BME280;5411;58.386;15.560;2023-09-30T10:16:48;99947.03;;;16.99;87.57
10720;BME280;5411;58.386;15.560;2023-09-30T10:19:20;99947.28;;;16.97;86.81
10720;BME280;5411;58.386;15.560;2023-09-30T10:22:22;99945.91;;;16.95;85.89
10720;BME280;5411;58.386;15.560;2023-09-30T10:24:52;99936.97;;;16.94;85.81
10720;BME280;5411;58.386;15.560;2023-09-30T10:27:34;99953.25;;;16.99;86.34
10720;BME280;5411;58.386;15.560;2023-09-30T10:30:11;99960.72;;;16.92;86.61
10720;BME280;5411;58.386;15.560;2023-09-30T10:33:10;99962.13;;;16.95;86.79
10720;BME280;5411;58.386;15.560;2023-09-30T10:35:49;99962.22;;;17.05;87.43
10720;BME280;5411;58.386;15.560;2023-09-30T10:38:40;99953.34;;;17.09;85.00
10720;BME280;5411;58.386;15.560;2023-09-30T10:41:10;99961.53;;;17.15;86.61
10720;BME280;5411;58.386;15.560;2023-09-30T10:43:46;99952.28;;;17.10;84.52
10720;BME280;5411;58.386;15.560;2023-09-30T10:46:30;99957.75;;;17.16;86.56
10720;BME280;5411;58.386;15.560;2023-09-30T10:49:30;99977.28;;;17.23;84.35
10720;BME280;5411;58.386;15.560;2023-09-30T10:52:06;99959.06;;;17.13;85.35
10720;BME280;5411;58.386;15.560;2023-09-30T10:54:39;99968.75;;;17.09;86.38
10720;BME280;5411;58.386;15.560;2023-09-30T10:57:10;99969.50;;;17.04;85.15
10720;BME280;5411;58.386;15.560;2023-09-30T10:59:39;99970.22;;;16.95;83.18
10720;BME280;5411;58.386;15.560;2023-09-30T11:02:21;99974.16;;;16.82;84.28
10720;BME280;5411;58.386;15.560;2023-09-30T11:04:50;99971.50;;;16.87;83.96
10720;BME280;5411;58.386;15.560;2023-09-30T11:07:23;99975.84;;;16.88;84.18
10720;BME280;5411;58.386;15.560;2023-09-30T11:09:55;99980.53;;;16.98;84.10
10720;BME280;5411;58.386;15.560;2023-09-30T11:12:26;99971.44;;;17.04;84.33
10720;BME280;5411;58.386;15.560;2023-09-30T11:14:59;99992.03;;;17.10;84.70
10720;BME280;5411;58.386;15.560;2023-09-30T11:17:28;99987.44;;;17.10;84.94
10720;BME280;5411;58.386;15.560;2023-09-30T11:19:57;99978.84;;;17.19;85.14
10720;BME280;5411;58.386;15.560;2023-09-30T11:22:27;99974.25;;;17.19;83.82
10720;BME280;5411;58.386;15.560;2023-09-30T11:25:04;99983.31;;;17.30;83.56
10720;BME280;5411;58.386;15.560;2023-09-30T11:27:36;99983.13;;;17.41;83.10
10720;BME280;5411;58.386;15.560;2023-09-30T11:30:13;99984.88;;;17.58;80.04
10720;BME280;5411;58.386;15.560;2023-09-30T11:32:41;99984.19;;;17.67;79.56
10720;BME280;5411;58.386;15.560;2023-09-30T11:35:21;99989.19;;;17.80;79.85
10720;BME280;5411;58.386;15.560;2023-09-30T11:37:51;99992.75;;;17.91;80.69
10720;BME280;5411;58.386;15.560;2023-09-30T11:40:22;99989.34;;;18.06;79.62
10720;BME280;5411;58.386;15.560;2023-09-30T11:43:07;99985.31;;;18.08;78.33
10720;BME280;5411;58.386;15.560;2023-09-30T11:45:39;99987.78;;;18.15;77.17
10720;BME280;5411;58.386;15.560;2023-09-30T11:48:17;99985.06;;;18.10;76.11
10720;BME280;5411;58.386;15.560;2023-09-30T11:50:47;99996.09;;;18.03;76.96
10720;BME280;5411;58.386;15.560;2023-09-30T11:53:17;99985.47;;;17.92;74.86
10720;BME280;5411;58.386;15.560;2023-09-30T11:55:49;100000.00;;;17.80;75.43
10720;BME280;5411;58.386;15.560;2023-09-30T11:58:18;99989.63;;;17.72;77.01
10720;BME280;5411;58.386;15.560;2023-09-30T12:00:47;100002.03;;;17.63;76.08
10720;BME280;5411;58.386;15.560;2023-09-30T12:03:18;99992.75;;;17.59;75.87
10720;BME280;5411;58.386;15.560;2023-09-30T12:05:47;99993.31;;;17.61;76.08
10720;BME280;5411;58.386;15.560;2023-09-30T12:08:16;100000.69;;;17.66;77.30
10720;BME280;5411;58.386;15.560;2023-09-30T12:10:44;99993.13;;;17.68;75.80
10720;BME280;5411;58.386;15.560;2023-09-30T12:13:14;100008.25;;;17.64;75.43
10720;BME280;5411;58.386;15.560;2023-09-30T12:15:43;100007.63;;;17.57;75.78
10720;BME280;5411;58.386;15.560;2023-09-30T12:18:17;99992.72;;;17.54;76.03
10720;BME280;5411;58.386;15.560;2023-09-30T12:20:50;100002.41;;;17.50;76.26
10720;BME280;5411;58.386;15.560;2023-09-30T12:23:20;100002.41;;;17.50;76.25
10720;BME280;5411;58.386;15.560;2023-09-30T12:25:51;100002.09;;;17.46;76.79
10720;BME280;5411;58.386;15.560;2023-09-30T12:28:41;100000.19;;;17.42;76.51
10720;BME280;5411;58.386;15.560;2023-09-30T12:31:12;100005.59;;;17.42;78.68
10720;BME280;5411;58.386;15.560;2023-09-30T12:33:41;99999.66;;;17.45;80.19
10720;BME280;5411;58.386;15.560;2023-09-30T12:36:11;100001.00;;;17.42;78.49
10720;BME280;5411;58.386;15.560;2023-09-30T12:38:45;100004.22;;;17.39;78.58
10720;BME280;5411;58.386;15.560;2023-09-30T12:41:13;100002.91;;;17.42;78.34
10720;BME280;5411;58.386;15.560;2023-09-30T12:43:43;100003.47;;;17.49;77.36
10720;BME280;5411;58.386;15.560;2023-09-30T12:46:12;100008.38;;;17.52;76.57
10720;BME280;5411;58.386;15.560;2023-09-30T12:48:41;100011.69;;;17.59;76.36
10720;BME280;5411;58.386;15.560;2023-09-30T12:51:13;100001.16;;;17.63;76.74
10720;BME280;5411;58.386;15.560;2023-09-30T12:53:44;100003.97;;;17.68;75.48
10720;BME280;5411;58.386;15.560;2023-09-30T12:56:13;100007.75;;;17.67;75.93
10720;BME280;5411;58.386;15.560;2023-09-30T12:58:43;99999.38;;;17.68;76.64
10720;BME280;5411;58.386;15.560;2023-09-30T13:01:15;100012.09;;;17.73;76.80
10720;BME280;5411;58.386;15.560;2023-09-30T13:03:49;100005.63;;;17.74;76.21
10720;BME280;5411;58.386;15.560;2023-09-30T13:06:19;100004.81;;;17.73;74.61
10720;BME280;5411;58.386;15.560;2023-09-30T13:08:47;100012.91;;;17.73;74.96
10720;BME280;5411;58.386;15.560;2023-09-30T13:11:16;100012.34;;;17.71;76.01
10720;BME280;5411;58.386;15.560;2023-09-30T13:13:46;100008.03;;;17.70;75.18
10720;BME280;5411;58.386;15.560;2023-09-30T13:16:15;100005.88;;;17.72;75.55
10720;BME280;5411;58.386;15.560;2023-09-30T13:18:46;100009.13;;;17.69;75.46